Time;durP1;ratioP1;P1;durP2;ratioP2;P2;SDS_P1;SDS_P2;PMS_P1;PMS_P2;Temp;Humidity;BMP_temperature;BMP_pressure;BME280_temperature;BME280_humidity;BME280_pressure;Samples;Min_cycle;Max_cycle;Signal;HPM_P1;HPM_P2
2021/09/17 00:02:12;;;;;;;40.40;24.03;;;17.10;99.90;;;;;;4426538;32;20474;-71
2021/09/17 00:04:39;;;;;;;41.67;24.50;;;17.00;99.90;;;;;;4427841;32;20162;-71
2021/09/17 00:07:06;;;;;;;47.13;26.93;;;17.10;99.90;;;;;;4428783;32;20489;-70
2021/09/17 00:09:33;;;;;;;49.87;27.53;;;17.10;99.90;;;;;;4426704;32;20167;-70
2021/09/17 00:12:01;;;;;;;53.40;29.97;;;17.10;99.90;;;;;;4428478;32;20123;-70
2021/09/17 00:14:31;;;;;;;54.80;30.33;;;17.10;99.90;;;;;;4427465;32;20154;-71
2021/09/17 00:16:58;;;;;;;49.27;28.33;;;17.00;99.90;;;;;;4427691;32;20446;-71
2021/09/17 00:19:24;;;;;;;55.53;31.33;;;17.00;99.90;;;;;;4428171;32;20414;-71
2021/09/17 00:21:51;;;;;;;56.73;30.57;;;17.00;99.90;;;;;;4426613;32;20127;-71
2021/09/17 00:24:18;;;;;;;55.77;30.43;;;17.00;99.90;;;;;;4426984;32;20443;-69
2021/09/17 00:26:45;;;;;;;62.03;32.27;;;17.10;99.90;;;;;;4426610;32;20153;-70
2021/09/17 00:29:12;;;;;;;59.17;32.37;;;17.10;99.90;;;;;;4427417;32;20135;-71
2021/09/17 00:31:39;;;;;;;61.87;32.43;;;17.10;99.90;;;;;;4427896;32;20139;-70
2021/09/17 00:34:09;;;;;;;60.03;32.63;;;17.10;99.90;;;;;;4427377;32;20178;-70
2021/09/17 00:36:36;;;;;;;60.20;33.90;;;17.10;99.90;;;;;;4428127;32;20253;-71
2021/09/17 00:39:03;;;;;;;58.67;33.50;;;17.10;99.90;;;;;;4427415;32;20159;-71
2021/09/17 00:41:30;;;;;;;60.20;33.47;;;17.00;99.90;;;;;;4428127;32;20180;-71
2021/09/17 00:43:57;;;;;;;56.57;32.07;;;17.00;99.90;;;;;;4428115;32;20128;-71
2021/09/17 00:46:24;;;;;;;54.70;31.27;;;17.00;99.90;;;;;;4426610;32;20134;-71
2021/09/17 00:48:50;;;;;;;52.80;30.53;;;17.00;99.90;;;;;;4426976;32;20131;-71
2021/09/17 00:51:20;;;;;;;57.93;30.63;;;17.00;99.90;;;;;;4426315;32;20139;-72
2021/09/17 00:53:47;;;;;;;48.50;28.93;;;17.00;99.90;;;;;;4427925;32;20143;-71
2021/09/17 00:56:15;;;;;;;51.03;28.73;;;17.00;99.90;;;;;;4427831;32;20437;-72
2021/09/17 00:58:41;;;;;;;48.33;27.60;;;17.00;99.90;;;;;;4426990;32;20124;-72
2021/09/17 01:01:11;;;;;;;47.30;27.03;;;16.90;99.90;;;;;;4426771;32;20146;-71
2021/09/17 01:03:39;;;;;;;44.50;26.83;;;16.90;99.90;;;;;;4426673;32;20417;-71
2021/09/17 01:06:09;;;;;;;44.97;25.87;;;16.90;99.90;;;;;;4427713;32;20127;-70
2021/09/17 01:08:40;;;;;;;42.57;24.77;;;16.90;99.90;;;;;;4425544;32;20237;-70
2021/09/17 01:11:07;;;;;;;42.47;23.67;;;16.90;99.90;;;;;;4427225;32;20526;-71
2021/09/17 01:13:35;;;;;;;38.87;22.77;;;16.90;99.90;;;;;;4426966;32;20171;-72
2021/09/17 01:16:04;;;;;;;37.60;22.23;;;16.80;99.90;;;;;;4426724;32;20148;-71
2021/09/17 01:18:34;;;;;;;36.40;22.80;;;16.80;99.90;;;;;;4425577;32;20135;-71
2021/09/17 01:21:02;;;;;;;36.33;21.90;;;16.80;99.90;;;;;;4427335;32;20131;-71
2021/09/17 01:23:29;;;;;;;37.93;23.50;;;16.70;99.90;;;;;;4426901;32;20142;-71
2021/09/17 01:25:57;;;;;;;34.87;22.50;;;16.70;99.90;;;;;;4425656;32;20166;-71
2021/09/17 01:28:26;;;;;;;38.10;22.30;;;16.60;99.90;;;;;;4425168;32;20449;-70
2021/09/17 01:30:54;;;;;;;37.80;23.60;;;16.60;99.90;;;;;;4427049;32;20369;-71
2021/09/17 01:33:20;;;;;;;38.53;23.57;;;16.50;99.90;;;;;;4424814;32;20143;-71
2021/09/17 01:35:56;;;;;;;39.10;22.67;;;16.50;99.90;;;;;;4427253;32;20127;-71
2021/09/17 01:38:26;;;;;;;39.67;24.00;;;16.50;99.90;;;;;;4425275;32;20521;-71
2021/09/17 01:40:53;;;;;;;37.77;23.30;;;16.50;99.90;;;;;;4425376;32;20143;-71
2021/09/17 01:43:24;;;;;;;37.40;23.87;;;16.50;99.90;;;;;;4425741;32;20410;-70
2021/09/17 01:45:51;;;;;;;38.03;23.13;;;16.40;99.90;;;;;;4425299;32;20271;-71
2021/09/17 01:48:18;;;;;;;39.53;22.70;;;16.40;99.90;;;;;;4425094;32;20135;-70
2021/09/17 01:50:45;;;;;;;36.57;22.93;;;16.40;99.90;;;;;;4426185;32;20136;-70
2021/09/17 01:53:12;;;;;;;34.07;21.17;;;16.40;99.90;;;;;;4425050;32;20131;-70
2021/09/17 01:55:39;;;;;;;37.30;22.07;;;16.40;99.90;;;;;;4426022;32;20190;-71
2021/09/17 01:58:06;;;;;;;35.60;21.37;;;16.40;99.90;;;;;;4425196;32;20159;-70
2021/09/17 02:00:36;;;;;;;36.80;22.90;;;16.30;99.90;;;;;;4425295;32;20138;-70
2021/09/17 02:03:03;;;;;;;36.20;23.40;;;16.30;99.90;;;;;;4425154;32;20162;-70
2021/09/17 02:05:31;;;;;;;35.73;23.60;;;16.30;99.90;;;;;;4425167;32;20126;-69
2021/09/17 02:07:58;;;;;;;35.13;22.63;;;16.30;99.90;;;;;;4425702;32;20534;-70
2021/09/17 02:10:25;;;;;;;36.47;22.30;;;16.30;99.90;;;;;;4425186;32;20134;-69
2021/09/17 02:12:52;;;;;;;33.17;21.97;;;16.20;99.90;;;;;;4424681;32;20218;-70
2021/09/17 02:15:19;;;;;;;33.53;21.43;;;16.20;99.90;;;;;;4425362;32;20139;-70
2021/09/17 02:17:45;;;;;;;30.57;20.60;;;16.20;99.90;;;;;;4426418;32;20140;-70
2021/09/17 02:20:12;;;;;;;31.70;20.90;;;16.20;99.90;;;;;;4424371;32;20401;-71
2021/09/17 02:22:39;;;;;;;28.17;18.67;;;16.20;99.90;;;;;;4424791;32;20127;-70
2021/09/17 02:25:09;;;;;;;31.40;20.60;;;16.10;99.90;;;;;;4424672;32;20175;-72
2021/09/17 02:27:36;;;;;;;32.53;19.23;;;16.20;99.90;;;;;;4424606;32;20139;-71
2021/09/17 02:30:06;;;;;;;28.03;18.60;;;16.10;99.90;;;;;;4425611;32;20489;-70
2021/09/17 02:32:36;;;;;;;32.50;19.07;;;16.10;99.90;;;;;;4425007;32;20147;-70
2021/09/17 02:35:04;;;;;;;28.43;18.07;;;16.10;99.90;;;;;;4425915;32;20173;-70
2021/09/17 02:37:31;;;;;;;30.13;19.40;;;16.00;99.90;;;;;;4426055;32;20136;-70
2021/09/17 02:40:01;;;;;;;30.20;17.57;;;16.00;99.90;;;;;;4426284;32;20195;-70
2021/09/17 02:42:28;;;;;;;28.27;17.40;;;16.00;99.90;;;;;;4425905;32;20233;-70
2021/09/17 02:44:58;;;;;;;26.77;17.13;;;15.90;99.90;;;;;;4426193;32;20487;-71
2021/09/17 02:47:27;;;;;;;26.23;17.83;;;15.90;99.90;;;;;;4425567;32;20404;-70
2021/09/17 02:49:54;;;;;;;24.53;16.83;;;16.00;99.90;;;;;;4424420;32;20162;-71
2021/09/17 02:52:21;;;;;;;26.87;17.63;;;16.00;99.90;;;;;;4424474;32;20184;-71
2021/09/17 02:54:48;;;;;;;26.40;16.57;;;15.90;99.90;;;;;;4425687;32;20217;-70
2021/09/17 02:57:15;;;;;;;26.43;16.40;;;15.90;99.90;;;;;;4424908;32;20415;-70
2021/09/17 02:59:42;;;;;;;25.23;16.50;;;15.80;99.90;;;;;;4424937;32;20155;-70
2021/09/17 03:02:09;;;;;;;28.40;16.37;;;15.70;99.90;;;;;;4424563;32;20135;-70
2021/09/17 03:04:36;;;;;;;23.83;15.17;;;15.70;99.90;;;;;;4424475;32;20177;-70
2021/09/17 03:07:05;;;;;;;24.97;15.93;;;15.70;99.90;;;;;;4423614;32;20486;-70
2021/09/17 03:09:35;;;;;;;23.13;15.27;;;15.70;99.90;;;;;;4423163;32;20218;-70
2021/09/17 03:12:08;;;;;;;24.37;15.97;;;15.70;99.90;;;;;;4425607;32;20336;-70
2021/09/17 03:14:37;;;;;;;25.67;16.73;;;15.70;99.90;;;;;;4425397;32;20174;-70
2021/09/17 03:17:04;;;;;;;28.60;17.10;;;15.70;99.90;;;;;;4425712;32;20130;-71
2021/09/17 03:19:33;;;;;;;31.07;19.20;;;15.70;99.90;;;;;;4425592;32;20131;-71
2021/09/17 03:22:04;;;;;;;32.23;19.87;;;15.60;99.90;;;;;;4425137;32;20135;-70
2021/09/17 03:24:31;;;;;;;32.90;20.20;;;15.60;99.90;;;;;;4425518;32;20187;-70
2021/09/17 03:26:58;;;;;;;34.10;20.97;;;15.60;99.90;;;;;;4425177;32;20212;-73
2021/09/17 03:29:25;;;;;;;35.17;20.97;;;15.50;99.90;;;;;;4425471;32;20175;-70
2021/09/17 03:31:52;;;;;;;32.77;20.70;;;15.50;99.90;;;;;;4424468;32;20213;-70
2021/09/17 03:34:18;;;;;;;35.37;20.17;;;15.50;99.90;;;;;;4423708;32;20401;-71
2021/09/17 03:36:48;;;;;;;32.07;19.20;;;15.50;99.90;;;;;;4425437;32;20170;-70
2021/09/17 03:39:15;;;;;;;28.37;19.07;;;15.40;99.90;;;;;;4425249;32;20150;-70
2021/09/17 03:41:45;;;;;;;27.40;17.80;;;15.50;99.90;;;;;;4425050;32;20135;-70
2021/09/17 03:44:15;;;;;;;26.77;18.17;;;15.40;99.90;;;;;;4423485;32;20130;-70
2021/09/17 03:46:42;;;;;;;29.10;17.90;;;15.40;99.90;;;;;;4423451;32;20196;-71
2021/09/17 03:49:09;;;;;;;27.43;17.13;;;15.40;99.90;;;;;;4423634;32;20124;-71
2021/09/17 03:51:36;;;;;;;29.30;17.30;;;15.40;99.90;;;;;;4425076;32;20479;-70
2021/09/17 03:54:03;;;;;;;24.13;16.33;;;15.40;99.90;;;;;;4423536;32;20151;-70
2021/09/17 03:56:30;;;;;;;24.60;16.33;;;15.30;99.90;;;;;;4425213;32;20369;-70
2021/09/17 03:58:57;;;;;;;30.63;17.10;;;15.30;99.90;;;;;;4423262;32;20131;-70
2021/09/17 04:01:24;;;;;;;25.20;16.93;;;15.30;99.90;;;;;;4423923;32;20420;-71
2021/09/17 04:03:51;;;;;;;31.30;17.50;;;15.30;99.90;;;;;;4424056;32;20154;-71
2021/09/17 04:06:17;;;;;;;26.97;16.67;;;15.30;99.90;;;;;;4423737;32;20515;-71
2021/09/17 04:08:44;;;;;;;29.90;16.30;;;15.30;99.90;;;;;;4424937;32;20488;-70
2021/09/17 04:11:11;;;;;;;24.23;16.40;;;15.20;99.90;;;;;;4424993;32;20502;-70
2021/09/17 04:13:38;;;;;;;25.33;16.00;;;15.20;99.90;;;;;;4423716;32;20231;-70
2021/09/17 04:16:04;;;;;;;26.17;16.50;;;15.20;99.90;;;;;;4425125;32;20195;-70
2021/09/17 04:18:31;;;;;;;24.90;16.53;;;15.20;99.90;;;;;;4424793;32;20151;-70
2021/09/17 04:20:58;;;;;;;23.60;15.90;;;15.20;99.90;;;;;;4423191;32;20162;-70
2021/09/17 04:23:29;;;;;;;23.33;16.37;;;15.20;99.90;;;;;;4423317;32;20177;-70
2021/09/17 04:26:01;;;;;;;24.90;16.80;;;15.30;99.90;;;;;;4424924;32;20127;-71
2021/09/17 04:28:28;;;;;;;24.20;17.23;;;15.20;99.90;;;;;;4423641;32;20170;-70
2021/09/17 04:30:55;;;;;;;28.97;17.70;;;15.20;99.90;;;;;;4424512;32;20448;-70
2021/09/17 04:33:24;;;;;;;25.77;16.70;;;15.20;99.90;;;;;;4424659;32;20130;-71
2021/09/17 04:35:51;;;;;;;25.90;16.80;;;15.20;99.90;;;;;;4427710;32;20466;-70
2021/09/17 04:38:18;;;;;;;23.13;16.90;;;15.20;99.90;;;;;;4427520;32;20186;-71
2021/09/17 04:40:45;;;;;;;24.87;16.83;;;15.20;99.90;;;;;;4426636;32;20204;-70
2021/09/17 04:43:13;;;;;;;24.10;15.87;;;15.20;99.90;;;;;;4426531;32;20409;-70
2021/09/17 04:45:39;;;;;;;24.23;16.23;;;15.20;99.90;;;;;;4426543;32;20176;-70
2021/09/17 04:48:11;;;;;;;23.93;15.23;;;15.20;99.90;;;;;;4425816;32;20127;-70
2021/09/17 04:50:38;;;;;;;21.20;15.23;;;15.30;99.90;;;;;;4426641;32;20132;-71
2021/09/17 04:53:07;;;;;;;22.53;14.13;;;15.30;99.90;;;;;;4427649;32;20377;-70
2021/09/17 04:55:34;;;;;;;18.57;13.23;;;15.30;99.90;;;;;;4426841;32;20139;-70
2021/09/17 04:58:05;;;;;;;22.27;15.00;;;15.30;99.90;;;;;;4425729;32;20191;-70
2021/09/17 05:00:33;;;;;;;21.90;13.20;;;15.20;99.90;;;;;;4425450;32;20147;-71
2021/09/17 05:03:05;;;;;;;19.80;12.57;;;15.20;99.90;;;;;;4426939;32;20205;-71
2021/09/17 05:05:33;;;;;;;18.40;12.60;;;15.30;99.90;;;;;;4425438;32;20147;-71
2021/09/17 05:07:59;;;;;;;20.20;12.80;;;15.20;99.90;;;;;;4425473;32;20174;-71
2021/09/17 05:10:26;;;;;;;20.50;13.07;;;15.30;99.90;;;;;;4425726;32;20135;-71
2021/09/17 05:12:53;;;;;;;20.40;12.93;;;15.30;99.90;;;;;;4424901;32;20139;-71
2021/09/17 05:15:23;;;;;;;18.67;12.37;;;15.40;99.90;;;;;;4425303;32;20131;-70
2021/09/17 05:17:50;;;;;;;17.67;11.47;;;15.40;99.90;;;;;;4426963;32;20135;-70
2021/09/17 05:20:18;;;;;;;15.03;11.27;;;15.50;99.90;;;;;;4425373;32;20127;-70
2021/09/17 05:22:44;;;;;;;16.37;10.60;;;15.50;99.90;;;;;;4425094;32;20176;-70
2021/09/17 05:25:11;;;;;;;16.17;10.43;;;15.50;99.90;;;;;;4426686;32;20329;-70
2021/09/17 05:27:41;;;;;;;15.73;9.10;;;15.50;99.90;;;;;;4427009;32;20181;-71
2021/09/17 05:30:08;;;;;;;12.73;9.17;;;15.40;99.90;;;;;;4427006;32;20143;-70
2021/09/17 05:32:35;;;;;;;15.47;10.23;;;15.40;99.90;;;;;;4424183;32;20151;-70
2021/09/17 05:35:06;;;;;;;16.00;8.40;;;15.40;99.90;;;;;;4426689;32;20212;-70
2021/09/17 05:37:33;;;;;;;12.13;8.00;;;15.40;99.90;;;;;;4424331;32;20123;-70
2021/09/17 05:40:00;;;;;;;12.17;8.23;;;15.30;99.90;;;;;;4425850;32;20127;-71
2021/09/17 05:42:26;;;;;;;11.53;8.17;;;15.20;99.90;;;;;;4426482;32;20183;-71
2021/09/17 05:44:56;;;;;;;11.83;8.77;;;15.20;99.90;;;;;;4424644;32;20128;-70
2021/09/17 05:47:22;;;;;;;11.90;8.73;;;15.20;99.90;;;;;;4425400;32;20157;-70
2021/09/17 05:49:49;;;;;;;13.57;8.47;;;15.20;99.90;;;;;;4426685;32;20230;-71
2021/09/17 05:52:18;;;;;;;14.00;8.47;;;15.20;99.90;;;;;;4424979;32;20512;-71
2021/09/17 05:54:49;;;;;;;15.40;9.33;;;15.30;99.90;;;;;;4424824;32;20195;-71
2021/09/17 05:57:18;;;;;;;12.03;8.40;;;15.20;99.90;;;;;;4425078;32;20500;-70
2021/09/17 05:59:45;;;;;;;12.43;8.43;;;15.20;99.90;;;;;;4425052;32;20177;-70
2021/09/17 06:02:13;;;;;;;11.90;8.47;;;15.10;99.90;;;;;;4425229;32;20131;-70
2021/09/17 06:04:40;;;;;;;12.77;8.33;;;15.10;99.90;;;;;;4425895;32;20159;-71
2021/09/17 06:07:06;;;;;;;14.43;8.77;;;15.10;99.90;;;;;;4426787;32;20153;-70
2021/09/17 06:09:36;;;;;;;14.27;8.47;;;15.10;99.90;;;;;;4424705;32;20422;-70
2021/09/17 06:12:04;;;;;;;11.37;8.33;;;15.00;99.90;;;;;;4424779;32;20130;-70
2021/09/17 06:14:32;;;;;;;13.60;8.50;;;15.00;99.90;;;;;;4425047;32;20161;-71
2021/09/17 06:17:04;;;;;;;10.90;7.97;;;14.90;99.90;;;;;;4424697;32;20158;-71
2021/09/17 06:19:30;;;;;;;13.37;8.63;;;15.00;99.90;;;;;;4424763;32;20139;-70
2021/09/17 06:21:57;;;;;;;13.00;8.67;;;15.00;99.90;;;;;;4425210;32;20143;-70
2021/09/17 06:24:24;;;;;;;15.27;9.10;;;15.00;99.90;;;;;;4425917;32;20223;-71
2021/09/17 06:26:51;;;;;;;13.70;8.20;;;15.00;99.90;;;;;;4424387;32;20412;-71
2021/09/17 06:29:24;;;;;;;11.20;8.10;;;15.00;99.90;;;;;;4425345;32;20170;-71
2021/09/17 06:31:50;;;;;;;12.03;8.47;;;15.00;99.90;;;;;;4424685;32;20147;-71
2021/09/17 06:34:19;;;;;;;12.50;8.20;;;15.00;99.90;;;;;;4424210;32;20143;-71
2021/09/17 06:36:49;;;;;;;11.30;7.47;;;14.90;99.90;;;;;;4425893;32;20227;-71
2021/09/17 06:39:17;;;;;;;11.40;7.97;;;14.90;99.90;;;;;;4424381;32;20161;-71
2021/09/17 06:41:47;;;;;;;13.90;9.53;;;14.90;99.90;;;;;;4424465;32;20131;-70
2021/09/17 06:44:13;;;;;;;12.87;8.77;;;14.90;99.90;;;;;;4424391;32;20130;-70
2021/09/17 06:46:43;;;;;;;13.40;8.10;;;15.00;99.90;;;;;;4425936;32;20522;-71
2021/09/17 06:49:10;;;;;;;13.20;8.80;;;15.00;99.90;;;;;;4424524;32;20138;-70
2021/09/17 06:51:39;;;;;;;15.77;9.33;;;15.00;99.90;;;;;;4424409;32;20153;-71
2021/09/17 06:54:06;;;;;;;11.57;8.83;;;15.00;99.90;;;;;;4424891;32;20188;-70
2021/09/17 06:56:33;;;;;;;14.70;8.90;;;15.00;99.90;;;;;;4414480;32;20147;-70
2021/09/17 06:59:00;;;;;;;17.00;8.87;;;15.00;99.90;;;;;;4417151;32;20198;-71
2021/09/17 07:01:29;;;;;;;15.30;9.20;;;14.90;99.90;;;;;;4409528;32;20141;-70
2021/09/17 07:03:56;;;;;;;12.30;9.60;;;14.90;99.90;;;;;;4423324;32;20414;-70
2021/09/17 07:06:30;;;;;;;15.17;10.97;;;14.90;99.90;;;;;;4425744;32;20225;-70
2021/09/17 07:08:57;;;;;;;14.83;10.27;;;14.80;99.90;;;;;;4425147;32;20174;-70
2021/09/17 07:11:24;;;;;;;18.80;11.00;;;14.80;99.90;;;;;;4424994;32;20183;-70
2021/09/17 07:13:51;;;;;;;14.27;10.50;;;14.80;99.90;;;;;;4424260;32;20214;-70
2021/09/17 07:16:17;;;;;;;16.23;10.93;;;14.80;99.90;;;;;;4425929;32;20183;-71
2021/09/17 07:18:44;;;;;;;17.47;12.00;;;14.90;99.90;;;;;;4424237;32;20166;-70
2021/09/17 07:21:11;;;;;;;17.20;12.20;;;15.00;99.90;;;;;;4423700;32;20417;-70
2021/09/17 07:23:38;;;;;;;19.70;13.97;;;15.00;99.90;;;;;;4423805;32;20132;-70
2021/09/17 07:26:07;;;;;;;17.23;13.43;;;15.00;99.90;;;;;;4425342;32;20139;-71
2021/09/17 07:28:34;;;;;;;19.03;12.63;;;15.00;99.90;;;;;;4423915;32;20230;-70
2021/09/17 07:31:01;;;;;;;17.43;13.20;;;15.00;99.90;;;;;;4424362;32;20126;-71
2021/09/17 07:33:29;;;;;;;19.90;15.10;;;14.90;99.90;;;;;;4424370;32;20204;-71
2021/09/17 07:35:56;;;;;;;20.00;13.80;;;14.90;99.90;;;;;;4424681;32;20184;-69
2021/09/17 07:38:26;;;;;;;21.73;14.23;;;14.90;99.90;;;;;;4423736;32;20439;-70
2021/09/17 07:40:52;;;;;;;22.20;13.47;;;14.90;99.90;;;;;;4424660;32;20525;-71
2021/09/17 07:43:19;;;;;;;17.90;13.03;;;14.90;99.90;;;;;;4424406;32;20219;-71
2021/09/17 07:45:46;;;;;;;17.63;12.53;;;14.90;99.90;;;;;;4424188;32;20135;-71
2021/09/17 07:48:15;;;;;;;20.47;14.20;;;14.90;99.90;;;;;;4424060;32;20139;-70
2021/09/17 07:50:42;;;;;;;20.53;13.80;;;15.00;99.90;;;;;;4425088;32;20121;-70
2021/09/17 07:53:09;;;;;;;20.23;13.93;;;15.00;99.90;;;;;;4424812;32;20220;-71
2021/09/17 07:55:37;;;;;;;19.20;14.07;;;15.00;99.90;;;;;;4423881;32;20132;-71
2021/09/17 07:58:05;;;;;;;22.53;15.90;;;15.00;99.90;;;;;;4425068;32;20137;-70
2021/09/17 08:00:33;;;;;;;19.07;14.37;;;15.00;99.90;;;;;;4422800;32;20139;-71
2021/09/17 08:03:06;;;;;;;24.77;18.23;;;15.00;99.90;;;;;;4424462;32;20132;-72
2021/09/17 08:05:36;;;;;;;24.97;17.37;;;15.00;99.90;;;;;;4425568;32;20127;-71
2021/09/17 08:08:03;;;;;;;25.30;17.73;;;15.10;99.90;;;;;;4424391;32;20163;-71
2021/09/17 08:10:30;;;;;;;19.87;15.17;;;15.10;99.90;;;;;;4428702;32;20221;-70
2021/09/17 08:12:57;;;;;;;23.07;16.17;;;15.20;99.90;;;;;;4427469;32;20199;-72
2021/09/17 08:15:29;;;;;;;24.83;16.87;;;15.20;99.90;;;;;;4428621;32;20491;-72
2021/09/17 08:17:56;;;;;;;23.87;16.03;;;15.20;99.90;;;;;;4426162;32;20132;-71
2021/09/17 08:20:23;;;;;;;25.43;17.03;;;15.30;99.90;;;;;;4428000;32;20347;-70
2021/09/17 08:22:49;;;;;;;24.20;18.00;;;15.20;99.90;;;;;;4426541;32;20191;-71
2021/09/17 08:25:18;;;;;;;27.50;19.20;;;15.20;99.90;;;;;;4427469;32;20222;-71
2021/09/17 08:27:45;;;;;;;27.97;20.47;;;15.20;99.90;;;;;;4428651;32;20131;-72
2021/09/17 08:30:16;;;;;;;29.47;18.63;;;15.20;99.90;;;;;;4427655;32;20151;-71
2021/09/17 08:32:46;;;;;;;27.37;19.33;;;15.20;99.90;;;;;;4426579;32;20545;-71
2021/09/17 08:35:18;;;;;;;26.17;18.87;;;15.20;99.90;;;;;;4428159;32;20199;-71
2021/09/17 08:37:48;;;;;;;24.90;18.47;;;15.20;99.90;;;;;;4427087;32;20150;-71
2021/09/17 08:40:15;;;;;;;24.57;18.67;;;15.20;99.90;;;;;;4427218;32;20139;-71
2021/09/17 08:42:43;;;;;;;27.20;19.07;;;15.30;99.90;;;;;;4427797;32;20415;-72
2021/09/17 08:45:16;;;;;;;27.67;20.17;;;15.40;99.90;;;;;;4426005;32;20445;-72
2021/09/17 08:47:49;;;;;;;33.93;22.07;;;15.40;99.90;;;;;;4427881;32;20147;-72
2021/09/17 08:50:17;;;;;;;40.63;24.30;;;15.50;99.90;;;;;;4426956;32;20411;-73
2021/09/17 08:52:44;;;;;;;33.40;23.37;;;15.50;99.90;;;;;;4427904;32;20131;-71
2021/09/17 08:55:11;;;;;;;33.73;22.67;;;15.50;99.90;;;;;;4427508;32;20147;-71
2021/09/17 08:57:38;;;;;;;36.03;24.40;;;15.60;99.90;;;;;;4426704;32;20127;-71
2021/09/17 09:00:26;;;;;;;36.13;23.20;;;15.60;99.90;;;;;;4426738;32;20383;-70
2021/09/17 09:02:58;;;;;;;38.77;23.67;;;15.70;99.90;;;;;;4427829;32;20151;-70
2021/09/17 09:05:30;;;;;;;35.97;24.40;;;15.80;99.90;;;;;;4426699;32;20139;-71
2021/09/17 09:07:58;;;;;;;32.77;22.60;;;15.90;99.90;;;;;;4426305;32;20159;-70
2021/09/17 09:10:25;;;;;;;36.13;24.13;;;16.00;99.90;;;;;;4427529;32;20445;-70
2021/09/17 09:13:01;;;;;;;38.60;25.70;;;15.90;99.90;;;;;;4427882;32;20154;-71
2021/09/17 09:15:31;;;;;;;39.77;27.07;;;15.90;99.90;;;;;;4426675;32;20135;-71
2021/09/17 09:18:00;;;;;;;38.83;27.50;;;15.90;99.90;;;;;;4425926;32;20143;-71
2021/09/17 09:20:35;;;;;;;38.13;27.70;;;16.00;99.90;;;;;;4425970;32;20131;-71
2021/09/17 09:23:21;;;;;;;37.40;26.17;;;16.00;99.90;;;;;;4426189;32;20145;-71
2021/09/17 09:25:51;;;;;;;40.63;28.17;;;16.00;99.90;;;;;;4426752;32;20207;-71
2021/09/17 09:28:32;;;;;;;44.17;30.00;;;15.90;99.90;;;;;;4426664;32;20221;-72
2021/09/17 09:31:06;;;;;;;45.50;30.40;;;15.90;99.90;;;;;;4428032;32;20237;-71
2021/09/17 09:33:41;;;;;;;45.93;30.37;;;16.00;99.90;;;;;;4427746;32;20158;-72
2021/09/17 09:36:08;;;;;;;44.77;29.87;;;15.90;99.90;;;;;;4425912;32;20203;-71
2021/09/17 09:38:42;;;;;;;45.33;30.63;;;15.90;99.90;;;;;;4425288;32;20189;-70
2021/09/17 09:41:15;;;;;;;44.03;31.33;;;16.00;99.90;;;;;;4427249;32;20241;-71
2021/09/17 09:43:57;;;;;;;44.87;30.27;;;16.10;99.90;;;;;;4425765;32;20153;-71
2021/09/17 09:46:43;;;;;;;47.63;31.17;;;16.10;99.90;;;;;;4426871;32;20513;-72
2021/09/17 09:49:25;;;;;;;42.47;29.53;;;16.10;99.90;;;;;;4427092;32;20131;-72
2021/09/17 09:52:10;;;;;;;43.20;30.43;;;16.00;99.90;;;;;;4427155;32;20142;-71
2021/09/17 09:54:37;;;;;;;44.80;30.43;;;16.20;99.90;;;;;;4425160;32;20123;-71
2021/09/17 09:57:04;;;;;;;45.73;28.80;;;16.30;99.90;;;;;;4426748;32;20436;-71
2021/09/17 09:59:34;;;;;;;45.43;30.13;;;16.30;99.90;;;;;;4425865;32;20216;-71
2021/09/17 10:02:04;;;;;;;44.77;30.90;;;16.40;99.90;;;;;;4426866;32;20130;-71
2021/09/17 10:04:33;;;;;;;42.17;29.50;;;16.50;99.90;;;;;;4426705;32;20128;-72
2021/09/17 10:07:10;;;;;;;41.07;28.90;;;16.50;99.90;;;;;;4425183;32;20298;-72
2021/09/17 10:09:40;;;;;;;44.47;30.13;;;16.50;99.90;;;;;;4425209;32;20495;-71
2021/09/17 10:12:12;;;;;;;43.73;30.37;;;16.50;99.90;;;;;;4426499;32;20203;-72
2021/09/17 10:14:44;;;;;;;41.57;29.53;;;16.50;99.90;;;;;;4426657;32;20573;-71
2021/09/17 10:17:14;;;;;;;44.87;30.07;;;16.60;99.90;;;;;;4426183;32;20135;-72
2021/09/17 10:19:44;;;;;;;44.43;29.37;;;16.60;99.90;;;;;;4426024;32;20188;-72
2021/09/17 10:22:43;;;;;;;42.07;29.10;;;16.60;99.90;;;;;;4426463;32;20441;-72
2021/09/17 10:25:22;;;;;;;41.73;28.70;;;16.80;99.90;;;;;;4425991;32;20199;-72
2021/09/17 10:28:17;;;;;;;45.37;31.07;;;16.90;99.90;;;;;;4424036;32;20200;-72
2021/09/17 10:30:44;;;;;;;46.33;31.10;;;16.90;99.90;;;;;;4424157;32;20139;-73
2021/09/17 10:33:25;;;;;;;44.40;31.07;;;17.00;99.90;;;;;;4423986;32;20533;-71
2021/09/17 10:35:55;;;;;;;45.23;30.17;;;17.00;99.90;;;;;;4426019;32;20143;-71
2021/09/17 10:38:27;;;;;;;44.13;31.60;;;17.10;99.90;;;;;;4424493;32;20544;-72
2021/09/17 10:41:01;;;;;;;48.43;32.07;;;17.00;99.90;;;;;;4425844;32;20127;-71
2021/09/17 10:43:46;;;;;;;44.77;31.03;;;17.00;99.90;;;;;;4426077;32;20168;-72
2021/09/17 10:46:19;;;;;;;44.53;29.73;;;17.10;99.90;;;;;;4426213;32;20203;-72
2021/09/17 10:48:53;;;;;;;40.43;28.37;;;17.10;99.90;;;;;;4426161;32;20202;-72
2021/09/17 10:51:37;;;;;;;43.43;29.70;;;17.20;99.90;;;;;;4426063;32;20245;-72
2021/09/17 10:54:10;;;;;;;41.60;28.27;;;17.30;99.90;;;;;;4425735;32;20131;-72
2021/09/17 10:56:49;;;;;;;40.43;28.13;;;17.10;99.90;;;;;;4424781;32;20174;-71
2021/09/17 10:59:25;;;;;;;41.37;27.97;;;17.20;99.90;;;;;;4424168;32;20232;-71
2021/09/17 11:01:59;;;;;;;40.03;28.50;;;17.20;99.90;;;;;;4424249;32;20203;-72
2021/09/17 11:04:34;;;;;;;39.73;28.83;;;17.30;99.90;;;;;;4425971;32;20168;-72
2021/09/17 11:07:26;;;;;;;38.77;28.10;;;17.40;99.90;;;;;;4425374;32;20190;-71
2021/09/17 11:09:55;;;;;;;40.30;27.63;;;17.50;99.90;;;;;;4425322;32;20222;-73
2021/09/17 11:12:27;;;;;;;39.60;28.30;;;17.60;99.90;;;;;;4424113;32;20146;-72
2021/09/17 11:14:59;;;;;;;37.10;27.80;;;17.60;99.90;;;;;;4424040;32;20195;-72
2021/09/17 11:17:37;;;;;;;39.53;28.30;;;17.70;99.90;;;;;;4425341;32;20466;-72
2021/09/17 11:20:15;;;;;;;37.23;28.37;;;17.90;99.90;;;;;;4425414;32;20183;-71
2021/09/17 11:22:52;;;;;;;36.87;27.63;;;18.00;99.90;;;;;;4424099;32;20564;-72
2021/09/17 11:25:28;;;;;;;44.60;30.10;;;18.10;99.90;;;;;;4425054;32;20174;-72
2021/09/17 11:27:55;;;;;;;34.93;28.10;;;18.10;99.90;;;;;;4424790;32;20177;-72
2021/09/17 11:30:28;;;;;;;39.60;28.80;;;18.10;99.90;;;;;;4423687;32;20177;-72
2021/09/17 11:32:55;;;;;;;32.90;26.33;;;18.20;99.90;;;;;;4423850;32;20185;-72
2021/09/17 11:35:22;;;;;;;35.07;26.73;;;18.30;99.90;;;;;;4423862;32;20122;-72
2021/09/17 11:37:56;;;;;;;33.67;26.03;;;18.40;99.90;;;;;;4424320;32;20228;-72
2021/09/17 11:40:27;;;;;;;30.13;24.37;;;18.50;99.90;;;;;;4425445;32;20383;-73
2021/09/17 11:42:55;;;;;;;28.00;22.60;;;18.60;99.90;;;;;;4423902;32;20204;-72
2021/09/17 11:45:24;;;;;;;28.63;21.00;;;18.50;99.90;;;;;;4424381;32;20448;-72
2021/09/17 11:47:53;;;;;;;30.13;20.80;;;18.60;99.90;;;;;;4423978;32;20190;-72
2021/09/17 11:50:26;;;;;;;22.23;18.07;;;18.60;99.90;;;;;;4423832;32;20239;-72
2021/09/17 11:52:54;;;;;;;21.07;17.07;;;18.60;99.90;;;;;;4425339;32;20142;-71
2021/09/17 11:55:26;;;;;;;19.77;16.13;;;18.70;99.90;;;;;;4425431;32;20153;-72
2021/09/17 11:57:56;;;;;;;19.50;15.67;;;18.80;99.90;;;;;;4423936;32;20208;-71
2021/09/17 12:00:24;;;;;;;19.60;15.17;;;19.10;99.90;;;;;;4423774;32;20174;-72
2021/09/17 12:02:58;;;;;;;16.13;14.17;;;19.20;99.90;;;;;;4424192;32;20127;-72
2021/09/17 12:05:31;;;;;;;17.50;13.80;;;19.30;99.90;;;;;;4424085;32;20206;-71
2021/09/17 12:08:01;;;;;;;17.27;14.43;;;19.30;99.90;;;;;;4423918;32;20247;-72
2021/09/17 12:10:30;;;;;;;17.77;14.10;;;19.40;99.90;;;;;;4422999;32;20169;-72
2021/09/17 12:13:07;;;;;;;16.73;13.73;;;19.40;99.90;;;;;;4423732;32;20166;-70
2021/09/17 12:15:38;;;;;;;15.67;13.10;;;19.40;99.90;;;;;;4424635;32;20138;-72
2021/09/17 12:18:08;;;;;;;15.63;12.63;;;19.60;99.90;;;;;;4424453;32;20159;-71
2021/09/17 12:20:41;;;;;;;14.57;12.20;;;19.80;99.90;;;;;;4424158;32;20196;-71
2021/09/17 12:23:09;;;;;;;14.00;11.50;;;20.10;99.90;;;;;;4425456;32;20149;-70
2021/09/17 12:25:43;;;;;;;13.27;11.37;;;20.20;99.90;;;;;;4423552;32;20222;-71
2021/09/17 12:28:18;;;;;;;11.00;9.73;;;20.40;99.90;;;;;;4424666;32;20150;-70
2021/09/17 12:30:46;;;;;;;13.43;10.00;;;20.10;99.90;;;;;;4424974;32;20499;-71
2021/09/17 12:33:19;;;;;;;11.90;9.93;;;19.90;99.90;;;;;;4425047;32;20199;-71
2021/09/17 12:35:54;;;;;;;11.93;9.93;;;19.90;99.90;;;;;;4424218;32;20127;-72
2021/09/17 12:38:25;;;;;;;11.07;9.87;;;20.00;99.90;;;;;;4423556;32;20501;-71
2021/09/17 12:40:55;;;;;;;12.10;9.93;;;20.10;99.90;;;;;;4423799;32;20383;-71